createdAt,value
2023-05-09T00:01:10.893Z,102079.00
2023-05-09T00:06:13.587Z,102072.60
2023-05-09T00:11:16.143Z,102067.20
2023-05-09T00:16:20.580Z,102064.40
2023-05-09T00:21:23.233Z,102062.80
2023-05-09T00:26:26.345Z,102070.60
2023-05-09T00:31:28.993Z,102065.00
2023-05-09T00:36:32.378Z,102062.40
2023-05-09T00:41:35.056Z,102062.60
2023-05-09T00:46:39.764Z,102061.60
2023-05-09T00:51:42.429Z,102057.40
2023-05-09T00:56:45.249Z,102055.60
2023-05-09T01:01:48.044Z,102050.60
2023-05-09T01:07:09.949Z,102051.20
2023-05-09T01:12:36.150Z,102050.40
2023-05-09T01:17:59.846Z,102046.80
2023-05-09T01:23:27.318Z,102044.60
2023-05-09T01:29:13.808Z,102045.60
2023-05-09T01:34:18.952Z,102039.60
2023-05-09T01:39:25.327Z,102050.20
2023-05-09T01:44:37.370Z,102046.20
2023-05-09T01:49:42.861Z,102040.20
2023-05-09T01:54:46.332Z,102039.60
2023-05-09T01:59:50.865Z,102038.20
2023-05-09T02:04:57.477Z,102041.00
2023-05-09T02:10:02.541Z,102040.60
2023-05-09T02:15:06.903Z,102041.60
2023-05-09T02:20:11.629Z,102045.40
2023-05-09T02:25:18.593Z,102043.20
2023-05-09T02:30:25.394Z,102044.80
2023-05-09T02:35:29.795Z,102046.80
2023-05-09T02:40:34.198Z,102054.00
2023-05-09T02:45:37.116Z,102062.20
2023-05-09T02:50:41.857Z,102056.80
2023-05-09T02:55:44.549Z,102048.00
2023-05-09T03:00:47.118Z,102049.00
2023-05-09T03:05:49.691Z,102045.20
2023-05-09T03:10:52.632Z,102038.40
2023-05-09T03:15:55.516Z,102028.80
2023-05-09T03:20:58.426Z,102021.40
2023-05-09T03:26:01.015Z,102021.20
2023-05-09T03:31:04.525Z,102011.80
2023-05-09T03:36:07.807Z,102011.60
2023-05-09T03:41:29.821Z,102003.00
2023-05-09T03:46:40.265Z,101990.00
2023-05-09T03:51:43.086Z,101985.40
2023-05-09T03:56:45.686Z,101984.60
2023-05-09T04:01:48.364Z,101980.60
2023-05-09T04:06:51.286Z,101977.20
2023-05-09T04:11:54.093Z,101973.00
2023-05-09T04:16:56.808Z,101976.40
2023-05-09T04:21:59.612Z,101969.40
2023-05-09T04:27:02.531Z,101971.40
2023-05-09T04:32:05.609Z,101966.60
2023-05-09T04:37:08.982Z,101961.20
2023-05-09T04:42:11.579Z,101964.40
2023-05-09T04:47:14.167Z,101962.20
2023-05-09T04:52:16.812Z,101960.80
2023-05-09T04:57:19.421Z,101959.40
2023-05-09T05:02:22.440Z,101959.80
2023-05-09T05:07:25.472Z,101958.60
2023-05-09T05:12:28.126Z,101948.80
2023-05-09T05:17:30.764Z,101950.60
2023-05-09T05:22:33.338Z,101948.60
2023-05-09T05:27:36.176Z,101943.00
2023-05-09T05:32:38.890Z,101935.20
2023-05-09T05:37:42.253Z,101935.40
2023-05-09T05:42:46.781Z,101937.20
2023-05-09T05:47:51.000Z,101935.60
2023-05-09T05:52:54.289Z,101929.80
2023-05-09T05:57:56.893Z,101932.00
2023-05-09T06:02:59.915Z,101932.00
2023-05-09T06:08:03.016Z,101931.20
2023-05-09T06:13:05.794Z,101934.60
2023-05-09T06:18:09.073Z,101933.20
2023-05-09T06:23:11.756Z,101927.40
2023-05-09T06:28:14.685Z,101929.00
2023-05-09T06:33:17.304Z,101930.20
2023-05-09T06:38:19.820Z,101926.80
2023-05-09T06:43:22.502Z,101927.40
2023-05-09T06:48:25.421Z,101924.00
2023-05-09T06:53:28.146Z,101930.40
2023-05-09T06:58:31.193Z,101931.00
2023-05-09T07:03:33.783Z,101930.60
2023-05-09T07:08:36.422Z,101929.20
2023-05-09T07:13:39.010Z,101920.80
2023-05-09T07:18:41.770Z,101924.20
2023-05-09T07:23:44.357Z,101922.60
2023-05-09T07:28:46.957Z,101913.00
2023-05-09T07:33:49.890Z,101912.80
2023-05-09T07:38:53.537Z,101906.80
2023-05-09T07:43:56.115Z,101908.00
2023-05-09T07:48:58.665Z,101905.80
2023-05-09T07:54:01.643Z,101896.80
2023-05-09T07:59:04.268Z,101899.60
2023-05-09T08:04:09.127Z,101894.60
2023-05-09T08:09:11.972Z,101890.80
2023-05-09T08:14:15.635Z,101884.80
2023-05-09T08:19:18.491Z,101883.00
2023-05-09T08:24:21.164Z,101888.40
2023-05-09T08:29:23.803Z,101885.40
2023-05-09T08:34:27.107Z,101882.00
2023-05-09T08:39:30.904Z,101883.40
2023-05-09T08:44:33.455Z,101880.00
2023-05-09T08:49:36.370Z,101870.00
2023-05-09T08:54:39.229Z,101866.80
2023-05-09T08:59:45.502Z,101856.60
2023-05-09T09:04:48.316Z,101859.40
2023-05-09T09:09:53.508Z,101856.20
2023-05-09T09:14:59.570Z,101856.20
2023-05-09T09:20:07.175Z,101846.80
2023-05-09T09:25:11.588Z,101851.00
2023-05-09T09:30:15.437Z,101847.80
2023-05-09T09:35:18.272Z,101848.80
2023-05-09T09:40:24.225Z,101844.60
2023-05-09T09:45:27.790Z,101835.60
2023-05-09T09:50:30.758Z,101838.60
2023-05-09T09:55:35.540Z,101841.60
2023-05-09T10:00:38.312Z,101833.20
2023-05-09T10:05:41.214Z,101827.80
2023-05-09T10:10:43.966Z,101821.80
2023-05-09T10:15:53.465Z,101822.40
2023-05-09T10:21:03.908Z,101816.40
2023-05-09T10:26:27.784Z,101823.20
2023-05-09T10:31:33.765Z,101823.00
2023-05-09T10:36:36.850Z,101813.00
2023-05-09T10:41:40.648Z,101818.00
2023-05-09T10:46:46.029Z,101813.60
2023-05-09T10:51:51.771Z,101802.40
2023-05-09T10:56:55.987Z,101803.00
2023-05-09T11:02:03.244Z,101799.60
2023-05-09T11:07:27.007Z,101796.40
2023-05-09T11:12:29.622Z,101783.60
2023-05-09T11:17:32.541Z,101774.20
2023-05-09T11:22:43.664Z,101772.40
2023-05-09T11:27:49.851Z,101763.40
2023-05-09T11:32:55.849Z,101759.00
2023-05-09T11:38:06.813Z,101758.00
2023-05-09T11:43:09.525Z,101745.20
2023-05-09T11:48:12.332Z,101736.80
2023-05-09T11:53:14.965Z,101730.80
2023-05-09T11:58:17.714Z,101723.20
2023-05-09T12:03:20.544Z,101718.00
2023-05-09T12:08:24.901Z,101708.20
2023-05-09T12:13:27.709Z,101709.60
2023-05-09T12:18:30.521Z,101694.20
2023-05-09T12:23:36.195Z,101678.40
2023-05-09T12:28:39.651Z,101674.20
2023-05-09T12:33:42.539Z,101679.40
2023-05-09T12:38:55.431Z,101682.00
2023-05-09T12:43:58.222Z,101663.80
2023-05-09T12:49:00.953Z,101662.60
2023-05-09T12:54:05.026Z,101648.60
2023-05-09T12:59:11.175Z,101646.40
2023-05-09T13:04:13.811Z,101642.00
2023-05-09T13:09:16.634Z,101632.00
2023-05-09T13:14:21.922Z,101623.20
2023-05-09T13:19:24.495Z,101617.40
2023-05-09T13:24:27.141Z,101620.60
2023-05-09T13:29:29.694Z,101613.20
2023-05-09T13:34:32.277Z,101602.40
2023-05-09T13:39:34.832Z,101590.60
2023-05-09T13:44:37.665Z,101588.80
2023-05-09T13:49:40.233Z,101574.40
2023-05-09T13:54:43.092Z,101574.20
2023-05-09T13:59:45.630Z,101563.40
2023-05-09T14:04:48.482Z,101560.80
2023-05-09T14:09:58.844Z,101559.20
2023-05-09T14:15:11.209Z,101543.40
2023-05-09T14:20:16.075Z,101536.80
2023-05-09T14:25:19.112Z,101544.20
2023-05-09T14:30:23.094Z,101542.00
2023-05-09T14:35:26.080Z,101536.00
2023-05-09T14:40:31.924Z,101521.80
2023-05-09T14:45:34.998Z,101522.80
2023-05-09T14:50:37.679Z,101519.20
2023-05-09T14:55:40.428Z,101521.80
2023-05-09T15:00:43.388Z,101517.20
2023-05-09T15:05:46.124Z,101506.60
2023-05-09T15:10:48.713Z,101497.20
2023-05-09T15:15:51.336Z,101497.80
2023-05-09T15:20:55.734Z,101492.20
2023-05-09T15:25:58.301Z,101492.20
2023-05-09T15:31:03.363Z,101481.20
2023-05-09T15:36:06.789Z,101471.20
2023-05-09T15:41:09.544Z,101470.80
2023-05-09T15:46:12.177Z,101466.60
2023-05-09T15:51:15.370Z,101462.80
2023-05-09T15:56:17.965Z,101459.20
2023-05-09T16:01:21.290Z,101451.20
2023-05-09T16:06:23.924Z,101447.20
2023-05-09T16:11:26.500Z,101438.20
2023-05-09T16:16:29.204Z,101437.80
2023-05-09T16:21:33.117Z,101434.00
2023-05-09T16:26:36.624Z,101422.00
2023-05-09T16:31:39.382Z,101414.60
2023-05-09T16:36:44.057Z,101418.60
2023-05-09T16:41:46.706Z,101404.60
2023-05-09T16:46:49.437Z,101411.60
2023-05-09T16:51:52.061Z,101400.40
2023-05-09T16:56:54.638Z,101403.00
2023-05-09T17:01:58.083Z,101403.40
2023-05-09T17:07:00.856Z,101392.80
2023-05-09T17:12:05.694Z,101387.20
2023-05-09T17:17:08.300Z,101388.80
2023-05-09T17:22:11.392Z,101386.40
2023-05-09T17:27:15.056Z,101386.40
2023-05-09T17:32:17.709Z,101382.60
2023-05-09T17:37:20.308Z,101379.40
2023-05-09T17:42:22.864Z,101381.20
2023-05-09T17:47:25.496Z,101374.60
2023-05-09T17:52:28.211Z,101378.80
2023-05-09T17:57:31.071Z,101378.80
2023-05-09T18:02:33.768Z,101387.00
2023-05-09T18:07:38.775Z,101393.00
2023-05-09T18:12:41.641Z,101390.20
2023-05-09T18:17:46.090Z,101392.60
2023-05-09T18:22:48.860Z,101396.00
2023-05-09T18:27:51.485Z,101395.40
2023-05-09T18:32:54.276Z,101397.40
2023-05-09T18:37:57.084Z,101397.40
2023-05-09T18:42:59.667Z,101401.00
2023-05-09T18:48:04.104Z,101403.00
2023-05-09T18:53:07.436Z,101407.20
2023-05-09T18:58:10.110Z,101400.20
2023-05-09T19:03:12.668Z,101404.80
2023-05-09T19:08:15.619Z,101407.40
2023-05-09T19:13:18.383Z,101408.60
2023-05-09T19:18:21.123Z,101407.80
2023-05-09T19:23:24.221Z,101408.40
2023-05-09T19:28:26.832Z,101407.00
2023-05-09T19:33:29.478Z,101406.60
2023-05-09T19:38:32.090Z,101399.20
2023-05-09T19:43:34.621Z,101398.60
2023-05-09T19:48:37.239Z,101398.60
2023-05-09T19:53:39.971Z,101403.40
2023-05-09T19:58:42.748Z,101396.20
2023-05-09T20:03:46.910Z,101389.60
2023-05-09T20:08:51.992Z,101399.80
2023-05-09T20:13:54.690Z,101397.40
2023-05-09T20:18:58.506Z,101398.00
2023-05-09T20:24:01.855Z,101401.00
2023-05-09T20:29:04.902Z,101409.80
2023-05-09T20:34:10.676Z,101406.60
2023-05-09T20:39:17.544Z,101414.40
2023-05-09T20:44:20.146Z,101412.60
2023-05-09T20:49:23.043Z,101418.60
2023-05-09T20:54:26.072Z,101411.00
2023-05-09T20:59:28.688Z,101412.80
2023-05-09T21:04:31.285Z,101409.60
2023-05-09T21:09:33.890Z,101409.80
2023-05-09T21:14:36.445Z,101411.80
2023-05-09T21:19:39.089Z,101413.80
2023-05-09T21:24:41.622Z,101415.20
2023-05-09T21:29:44.165Z,101414.40
2023-05-09T21:34:47.899Z,101410.80
2023-05-09T21:39:50.491Z,101417.20
2023-05-09T21:44:53.017Z,101412.40
2023-05-09T21:49:56.193Z,101405.80
2023-05-09T21:54:59.913Z,101408.00
2023-05-09T22:00:05.403Z,101405.00
2023-05-09T22:05:10.263Z,101415.40
2023-05-09T22:10:12.865Z,101405.00
2023-05-09T22:15:15.502Z,101416.00
2023-05-09T22:20:18.537Z,101416.00
2023-05-09T22:25:21.391Z,101419.20
2023-05-09T22:30:24.920Z,101413.60
2023-05-09T22:35:27.620Z,101411.80
2023-05-09T22:40:30.229Z,101404.20
2023-05-09T22:45:32.835Z,101406.20
2023-05-09T22:50:35.529Z,101401.00
2023-05-09T22:55:38.758Z,101401.80
2023-05-09T23:00:41.306Z,101398.40
2023-05-09T23:05:43.928Z,101397.80
2023-05-09T23:10:46.747Z,101399.20
2023-05-09T23:15:50.547Z,101397.20
2023-05-09T23:20:53.104Z,101395.20
2023-05-09T23:25:55.673Z,101394.20
2023-05-09T23:30:58.307Z,101393.00
2023-05-09T23:36:00.909Z,101398.20
2023-05-09T23:41:03.557Z,101393.40
2023-05-09T23:46:06.202Z,101389.80
2023-05-09T23:51:08.817Z,101392.20
2023-05-09T23:56:11.442Z,101389.20
